sensor_id;sensor_type;location;lat;lon;timestamp;temperature;humidity
27647;DHT22;42229;51.230;6.240;2024-02-21T00:01:24;11.40;99.90
27647;DHT22;42229;51.230;6.240;2024-02-21T00:03:51;11.40;99.90
27647;DHT22;42229;51.230;6.240;2024-02-21T00:06:17;11.40;99.90
27647;DHT22;42229;51.230;6.240;2024-02-21T00:08:43;11.40;99.90
27647;DHT22;42229;51.230;6.240;2024-02-21T00:11:09;11.40;99.90
27647;DHT22;42229;51.230;6.240;2024-02-21T00:13:35;11.40;99.90
27647;DHT22;42229;51.230;6.240;2024-02-21T00:16:02;11.40;99.90
27647;DHT22;42229;51.230;6.240;2024-02-21T00:18:28;11.40;99.90
27647;DHT22;42229;51.230;6.240;2024-02-21T00:20:55;11.40;99.90
27647;DHT22;42229;51.230;6.240;2024-02-21T00:23:21;11.40;99.90
27647;DHT22;42229;51.230;6.240;2024-02-21T00:25:48;11.40;99.90
27647;DHT22;42229;51.230;6.240;2024-02-21T00:28:14;11.40;99.90
27647;DHT22;42229;51.230;6.240;2024-02-21T00:30:40;11.40;99.90
27647;DHT22;42229;51.230;6.240;2024-02-21T00:33:06;11.40;99.90
27647;DHT22;42229;51.230;6.240;2024-02-21T00:35:32;11.40;99.90
27647;DHT22;42229;51.230;6.240;2024-02-21T00:37:59;11.40;99.90
27647;DHT22;42229;51.230;6.240;2024-02-21T00:40:25;11.40;99.90
27647;DHT22;42229;51.230;6.240;2024-02-21T00:42:51;11.40;99.90
27647;DHT22;42229;51.230;6.240;2024-02-21T00:45:17;11.40;99.90
27647;DHT22;42229;51.230;6.240;2024-02-21T00:47:44;11.40;99.90
27647;DHT22;42229;51.230;6.240;2024-02-21T00:50:10;11.40;99.90
27647;DHT22;42229;51.230;6.240;2024-02-21T00:52:36;11.40;99.90
27647;DHT22;42229;51.230;6.240;2024-02-21T00:55:03;11.40;99.90
27647;DHT22;42229;51.230;6.240;2024-02-21T00:57:30;11.40;99.90
27647;DHT22;42229;51.230;6.240;2024-02-21T00:59:56;11.40;99.90
27647;DHT22;42229;51.230;6.240;2024-02-21T01:02:22;11.40;99.90
27647;DHT22;42229;51.230;6.240;2024-02-21T01:04:48;11.40;99.90
27647;DHT22;42229;51.230;6.240;2024-02-21T01:07:15;11.50;99.90
27647;DHT22;42229;51.230;6.240;2024-02-21T01:09:41;11.40;99.90
27647;DHT22;42229;51.230;6.240;2024-02-21T01:12:07;11.40;99.90
27647;DHT22;42229;51.230;6.240;2024-02-21T01:14:33;11.50;99.90
27647;DHT22;42229;51.230;6.240;2024-02-21T01:17:00;11.50;99.90
27647;DHT22;42229;51.230;6.240;2024-02-21T01:19:27;11.50;99.90
27647;DHT22;42229;51.230;6.240;2024-02-21T01:21:53;11.40;99.90
27647;DHT22;42229;51.230;6.240;2024-02-21T01:24:19;11.40;99.90
27647;DHT22;42229;51.230;6.240;2024-02-21T01:26:45;11.50;99.90
27647;DHT22;42229;51.230;6.240;2024-02-21T01:29:12;11.40;99.90
27647;DHT22;42229;51.230;6.240;2024-02-21T01:31:38;11.40;99.90
27647;DHT22;42229;51.230;6.240;2024-02-21T01:34:04;11.50;99.90
27647;DHT22;42229;51.230;6.240;2024-02-21T01:36:31;11.50;99.90
27647;DHT22;42229;51.230;6.240;2024-02-21T01:38:57;11.40;99.90
27647;DHT22;42229;51.230;6.240;2024-02-21T01:41:23;11.40;99.90
27647;DHT22;42229;51.230;6.240;2024-02-21T01:43:50;11.40;99.90
27647;DHT22;42229;51.230;6.240;2024-02-21T01:46:16;11.50;99.90
27647;DHT22;42229;51.230;6.240;2024-02-21T01:48:43;11.40;99.90
27647;DHT22;42229;51.230;6.240;2024-02-21T01:51:09;11.50;99.90
27647;DHT22;42229;51.230;6.240;2024-02-21T01:53:36;11.50;99.90
27647;DHT22;42229;51.230;6.240;2024-02-21T01:56:04;11.40;99.90
27647;DHT22;42229;51.230;6.240;2024-02-21T01:58:32;11.50;99.90
27647;DHT22;42229;51.230;6.240;2024-02-21T02:00:59;11.50;99.90
27647;DHT22;42229;51.230;6.240;2024-02-21T02:03:25;11.50;99.90
27647;DHT22;42229;51.230;6.240;2024-02-21T02:05:52;11.40;99.90
27647;DHT22;42229;51.230;6.240;2024-02-21T02:08:19;11.50;99.90
27647;DHT22;42229;51.230;6.240;2024-02-21T02:10:48;11.50;99.90
27647;DHT22;42229;51.230;6.240;2024-02-21T02:13:14;11.50;99.90
27647;DHT22;42229;51.230;6.240;2024-02-21T02:15:41;11.50;99.90
27647;DHT22;42229;51.230;6.240;2024-02-21T02:18:08;11.50;99.90
27647;DHT22;42229;51.230;6.240;2024-02-21T02:20:35;11.40;99.90
27647;DHT22;42229;51.230;6.240;2024-02-21T02:25:49;11.50;99.90
27647;DHT22;42229;51.230;6.240;2024-02-21T02:28:18;11.40;99.90
27647;DHT22;42229;51.230;6.240;2024-02-21T02:30:44;11.40;99.90
27647;DHT22;42229;51.230;6.240;2024-02-21T02:33:11;11.40;99.90
27647;DHT22;42229;51.230;6.240;2024-02-21T02:35:37;11.40;99.90
27647;DHT22;42229;51.230;6.240;2024-02-21T02:38:03;11.40;99.90
27647;DHT22;42229;51.230;6.240;2024-02-21T02:40:30;11.50;99.90
27647;DHT22;42229;51.230;6.240;2024-02-21T02:42:57;11.40;99.90
27647;DHT22;42229;51.230;6.240;2024-02-21T02:45:23;11.40;99.90
27647;DHT22;42229;51.230;6.240;2024-02-21T02:47:49;11.40;99.90
27647;DHT22;42229;51.230;6.240;2024-02-21T02:50:16;11.40;99.90
27647;DHT22;42229;51.230;6.240;2024-02-21T02:52:42;11.40;99.90
27647;DHT22;42229;51.230;6.240;2024-02-21T02:55:08;11.40;99.90
27647;DHT22;42229;51.230;6.240;2024-02-21T02:57:34;11.40;99.90
27647;DHT22;42229;51.230;6.240;2024-02-21T03:00:01;11.40;99.90
27647;DHT22;42229;51.230;6.240;2024-02-21T03:02:27;11.40;99.90
27647;DHT22;42229;51.230;6.240;2024-02-21T03:04:53;11.40;99.90
27647;DHT22;42229;51.230;6.240;2024-02-21T03:07:19;11.40;99.90
27647;DHT22;42229;51.230;6.240;2024-02-21T03:09:46;11.40;99.90
27647;DHT22;42229;51.230;6.240;2024-02-21T03:12:12;11.40;99.90
27647;DHT22;42229;51.230;6.240;2024-02-21T03:14:38;11.30;99.90
27647;DHT22;42229;51.230;6.240;2024-02-21T03:17:04;11.30;99.90
27647;DHT22;42229;51.230;6.240;2024-02-21T03:19:31;11.30;99.90
27647;DHT22;42229;51.230;6.240;2024-02-21T03:21:57;11.30;99.90
27647;DHT22;42229;51.230;6.240;2024-02-21T03:24:23;11.30;99.90
27647;DHT22;42229;51.230;6.240;2024-02-21T03:26:49;11.30;99.90
27647;DHT22;42229;51.230;6.240;2024-02-21T03:29:16;11.30;99.90
27647;DHT22;42229;51.230;6.240;2024-02-21T03:31:43;11.30;99.90
27647;DHT22;42229;51.230;6.240;2024-02-21T03:34:12;11.30;99.90
27647;DHT22;42229;51.230;6.240;2024-02-21T03:36:38;11.30;99.90
27647;DHT22;42229;51.230;6.240;2024-02-21T03:39:05;11.30;99.90
27647;DHT22;42229;51.230;6.240;2024-02-21T03:41:31;11.20;99.90
27647;DHT22;42229;51.230;6.240;2024-02-21T03:43:57;11.20;99.90
27647;DHT22;42229;51.230;6.240;2024-02-21T03:46:24;11.30;99.90
27647;DHT22;42229;51.230;6.240;2024-02-21T03:48:50;11.30;99.90
27647;DHT22;42229;51.230;6.240;2024-02-21T03:51:16;11.30;99.90
27647;DHT22;42229;51.230;6.240;2024-02-21T03:53:43;11.20;99.90
27647;DHT22;42229;51.230;6.240;2024-02-21T03:56:09;11.20;99.90
27647;DHT22;42229;51.230;6.240;2024-02-21T03:58:35;11.30;99.90
27647;DHT22;42229;51.230;6.240;2024-02-21T04:01:02;11.30;99.90
27647;DHT22;42229;51.230;6.240;2024-02-21T04:03:29;11.20;99.90
27647;DHT22;42229;51.230;6.240;2024-02-21T04:05:56;11.30;99.90
27647;DHT22;42229;51.230;6.240;2024-02-21T04:08:22;11.20;99.90
27647;DHT22;42229;51.230;6.240;2024-02-21T04:10:49;11.20;99.90
27647;DHT22;42229;51.230;6.240;2024-02-21T04:13:15;11.20;99.90
27647;DHT22;42229;51.230;6.240;2024-02-21T04:15:41;11.20;99.90
27647;DHT22;42229;51.230;6.240;2024-02-21T04:18:07;11.20;99.90
27647;DHT22;42229;51.230;6.240;2024-02-21T04:20:34;11.20;99.90
27647;DHT22;42229;51.230;6.240;2024-02-21T04:23:01;11.10;99.90
27647;DHT22;42229;51.230;6.240;2024-02-21T04:25:27;11.20;99.90
27647;DHT22;42229;51.230;6.240;2024-02-21T04:27:53;11.20;99.90
27647;DHT22;42229;51.230;6.240;2024-02-21T04:30:19;11.10;99.90
27647;DHT22;42229;51.230;6.240;2024-02-21T04:32:45;11.20;99.90
27647;DHT22;42229;51.230;6.240;2024-02-21T04:35:12;11.10;99.90
27647;DHT22;42229;51.230;6.240;2024-02-21T04:37:38;11.10;99.90
27647;DHT22;42229;51.230;6.240;2024-02-21T04:40:04;11.10;99.90
27647;DHT22;42229;51.230;6.240;2024-02-21T04:42:31;11.10;99.90
27647;DHT22;42229;51.230;6.240;2024-02-21T04:47:24;11.00;99.90
27647;DHT22;42229;51.230;6.240;2024-02-21T04:49:51;11.00;99.90
27647;DHT22;42229;51.230;6.240;2024-02-21T04:52:17;11.00;99.90
27647;DHT22;42229;51.230;6.240;2024-02-21T04:54:43;11.00;99.90
27647;DHT22;42229;51.230;6.240;2024-02-21T04:57:09;11.00;99.90
27647;DHT22;42229;51.230;6.240;2024-02-21T04:59:46;11.00;99.90
27647;DHT22;42229;51.230;6.240;2024-02-21T05:02:15;11.00;99.90
27647;DHT22;42229;51.230;6.240;2024-02-21T05:04:44;11.00;99.90
27647;DHT22;42229;51.230;6.240;2024-02-21T05:07:11;11.00;99.90
27647;DHT22;42229;51.230;6.240;2024-02-21T05:09:37;11.00;99.90
27647;DHT22;42229;51.230;6.240;2024-02-21T05:12:03;11.00;99.90
27647;DHT22;42229;51.230;6.240;2024-02-21T05:14:30;11.00;99.90
27647;DHT22;42229;51.230;6.240;2024-02-21T05:16:56;11.00;99.90
27647;DHT22;42229;51.230;6.240;2024-02-21T05:19:23;11.00;99.90
27647;DHT22;42229;51.230;6.240;2024-02-21T05:21:49;11.00;99.90
27647;DHT22;42229;51.230;6.240;2024-02-21T05:24:15;11.00;99.90
27647;DHT22;42229;51.230;6.240;2024-02-21T05:26:41;11.00;99.90
27647;DHT22;42229;51.230;6.240;2024-02-21T05:29:08;11.10;99.90
27647;DHT22;42229;51.230;6.240;2024-02-21T05:34:19;11.00;99.90
27647;DHT22;42229;51.230;6.240;2024-02-21T05:36:45;11.00;99.90
27647;DHT22;42229;51.230;6.240;2024-02-21T05:39:12;11.00;99.90
27647;DHT22;42229;51.230;6.240;2024-02-21T05:41:39;11.00;99.90
27647;DHT22;42229;51.230;6.240;2024-02-21T05:44:05;11.00;99.90
27647;DHT22;42229;51.230;6.240;2024-02-21T05:46:31;11.00;99.90
27647;DHT22;42229;51.230;6.240;2024-02-21T05:48:58;11.00;99.90
27647;DHT22;42229;51.230;6.240;2024-02-21T05:51:24;11.00;99.90
27647;DHT22;42229;51.230;6.240;2024-02-21T05:53:50;11.00;99.90
27647;DHT22;42229;51.230;6.240;2024-02-21T05:56:16;11.00;99.90
27647;DHT22;42229;51.230;6.240;2024-02-21T05:58:43;10.90;99.90
27647;DHT22;42229;51.230;6.240;2024-02-21T06:01:10;10.90;99.90
27647;DHT22;42229;51.230;6.240;2024-02-21T06:03:36;10.90;99.90
27647;DHT22;42229;51.230;6.240;2024-02-21T06:06:02;10.90;99.90
27647;DHT22;42229;51.230;6.240;2024-02-21T06:08:30;10.90;99.90
27647;DHT22;42229;51.230;6.240;2024-02-21T06:10:57;10.90;99.90
27647;DHT22;42229;51.230;6.240;2024-02-21T06:13:23;10.90;99.90
27647;DHT22;42229;51.230;6.240;2024-02-21T06:15:50;10.90;99.90
27647;DHT22;42229;51.230;6.240;2024-02-21T06:18:17;10.90;99.90
27647;DHT22;42229;51.230;6.240;2024-02-21T06:20:43;10.90;99.90
27647;DHT22;42229;51.230;6.240;2024-02-21T06:23:09;10.90;99.90
27647;DHT22;42229;51.230;6.240;2024-02-21T06:25:36;10.90;99.90
27647;DHT22;42229;51.230;6.240;2024-02-21T06:28:02;10.90;99.90
27647;DHT22;42229;51.230;6.240;2024-02-21T06:30:28;10.90;99.90
27647;DHT22;42229;51.230;6.240;2024-02-21T06:32:54;10.90;99.90
27647;DHT22;42229;51.230;6.240;2024-02-21T06:35:22;10.90;99.90
27647;DHT22;42229;51.230;6.240;2024-02-21T06:37:50;10.80;99.90
27647;DHT22;42229;51.230;6.240;2024-02-21T06:40:21;10.80;99.90
27647;DHT22;42229;51.230;6.240;2024-02-21T06:42:48;10.90;99.90
27647;DHT22;42229;51.230;6.240;2024-02-21T06:45:15;10.80;99.90
27647;DHT22;42229;51.230;6.240;2024-02-21T06:47:41;10.80;99.90
27647;DHT22;42229;51.230;6.240;2024-02-21T06:50:08;10.80;99.90
27647;DHT22;42229;51.230;6.240;2024-02-21T06:52:35;10.80;99.90
27647;DHT22;42229;51.230;6.240;2024-02-21T06:55:02;10.80;99.90
27647;DHT22;42229;51.230;6.240;2024-02-21T06:57:29;10.80;99.90
27647;DHT22;42229;51.230;6.240;2024-02-21T06:59:55;10.90;99.90
27647;DHT22;42229;51.230;6.240;2024-02-21T07:02:21;10.80;99.90
27647;DHT22;42229;51.230;6.240;2024-02-21T07:04:48;10.90;99.90
27647;DHT22;42229;51.230;6.240;2024-02-21T07:07:14;10.90;99.90
27647;DHT22;42229;51.230;6.240;2024-02-21T07:09:40;10.80;99.90
27647;DHT22;42229;51.230;6.240;2024-02-21T07:12:07;10.90;99.90
27647;DHT22;42229;51.230;6.240;2024-02-21T07:14:33;10.80;99.90
27647;DHT22;42229;51.230;6.240;2024-02-21T07:17:01;10.80;99.90
27647;DHT22;42229;51.230;6.240;2024-02-21T07:19:27;10.80;99.90
27647;DHT22;42229;51.230;6.240;2024-02-21T07:21:53;10.90;99.90
27647;DHT22;42229;51.230;6.240;2024-02-21T07:24:20;10.90;99.90
27647;DHT22;42229;51.230;6.240;2024-02-21T07:26:46;10.90;99.90
27647;DHT22;42229;51.230;6.240;2024-02-21T07:29:12;10.90;99.90
27647;DHT22;42229;51.230;6.240;2024-02-21T07:31:42;10.90;99.90
27647;DHT22;42229;51.230;6.240;2024-02-21T07:34:09;10.90;99.90
27647;DHT22;42229;51.230;6.240;2024-02-21T07:36:38;10.90;99.90
27647;DHT22;42229;51.230;6.240;2024-02-21T07:39:04;10.90;99.90
27647;DHT22;42229;51.230;6.240;2024-02-21T07:41:31;10.90;99.90
27647;DHT22;42229;51.230;6.240;2024-02-21T07:43:57;10.90;99.90
27647;DHT22;42229;51.230;6.240;2024-02-21T07:46:24;10.90;99.90
27647;DHT22;42229;51.230;6.240;2024-02-21T07:48:50;10.90;99.90
27647;DHT22;42229;51.230;6.240;2024-02-21T07:51:17;10.90;99.90
27647;DHT22;42229;51.230;6.240;2024-02-21T07:53:44;10.90;99.90
27647;DHT22;42229;51.230;6.240;2024-02-21T07:56:15;10.90;99.90
27647;DHT22;42229;51.230;6.240;2024-02-21T07:58:41;10.90;99.90
27647;DHT22;42229;51.230;6.240;2024-02-21T08:01:08;10.90;99.90
27647;DHT22;42229;51.230;6.240;2024-02-21T08:03:34;10.90;99.90
27647;DHT22;42229;51.230;6.240;2024-02-21T08:06:01;10.90;99.90
27647;DHT22;42229;51.230;6.240;2024-02-21T08:08:28;10.90;99.90
27647;DHT22;42229;51.230;6.240;2024-02-21T08:10:54;10.90;99.90
27647;DHT22;42229;51.230;6.240;2024-02-21T08:13:20;10.90;99.90
27647;DHT22;42229;51.230;6.240;2024-02-21T08:15:46;10.90;99.90
27647;DHT22;42229;51.230;6.240;2024-02-21T08:18:13;10.90;99.90
27647;DHT22;42229;51.230;6.240;2024-02-21T08:20:40;10.90;99.90
27647;DHT22;42229;51.230;6.240;2024-02-21T08:23:06;10.90;99.90
27647;DHT22;42229;51.230;6.240;2024-02-21T08:25:32;10.90;99.90
27647;DHT22;42229;51.230;6.240;2024-02-21T08:27:59;10.90;99.90
27647;DHT22;42229;51.230;6.240;2024-02-21T08:30:25;10.80;99.90
27647;DHT22;42229;51.230;6.240;2024-02-21T08:32:51;10.80;99.90
27647;DHT22;42229;51.230;6.240;2024-02-21T08:35:19;10.80;99.90
27647;DHT22;42229;51.230;6.240;2024-02-21T08:37:48;10.70;99.90
27647;DHT22;42229;51.230;6.240;2024-02-21T08:40:14;10.70;99.90
27647;DHT22;42229;51.230;6.240;2024-02-21T08:42:43;10.80;99.90
27647;DHT22;42229;51.230;6.240;2024-02-21T08:45:09;10.70;99.90
27647;DHT22;42229;51.230;6.240;2024-02-21T08:47:36;10.70;99.90
27647;DHT22;42229;51.230;6.240;2024-02-21T08:50:05;10.80;99.90
27647;DHT22;42229;51.230;6.240;2024-02-21T08:52:32;10.80;99.90
27647;DHT22;42229;51.230;6.240;2024-02-21T08:54:58;10.80;99.90
27647;DHT22;42229;51.230;6.240;2024-02-21T08:57:24;10.80;99.90
27647;DHT22;42229;51.230;6.240;2024-02-21T08:59:50;10.90;99.90
27647;DHT22;42229;51.230;6.240;2024-02-21T09:02:17;10.90;99.90
27647;DHT22;42229;51.230;6.240;2024-02-21T09:04:43;10.90;99.90
27647;DHT22;42229;51.230;6.240;2024-02-21T09:07:12;10.90;99.90
27647;DHT22;42229;51.230;6.240;2024-02-21T09:09:38;10.90;99.90
27647;DHT22;42229;51.230;6.240;2024-02-21T09:12:06;10.90;99.90
27647;DHT22;42229;51.230;6.240;2024-02-21T09:14:33;11.00;99.90
27647;DHT22;42229;51.230;6.240;2024-02-21T09:16:59;11.00;99.90
27647;DHT22;42229;51.230;6.240;2024-02-21T09:19:26;11.00;99.90
27647;DHT22;42229;51.230;6.240;2024-02-21T09:21:52;11.10;99.90
27647;DHT22;42229;51.230;6.240;2024-02-21T09:24:18;11.10;99.90
27647;DHT22;42229;51.230;6.240;2024-02-21T09:26:44;11.10;99.90
27647;DHT22;42229;51.230;6.240;2024-02-21T09:29:10;11.10;99.90
27647;DHT22;42229;51.230;6.240;2024-02-21T09:31:37;11.20;99.90
27647;DHT22;42229;51.230;6.240;2024-02-21T09:34:04;11.20;99.90
27647;DHT22;42229;51.230;6.240;2024-02-21T09:36:30;11.30;99.90
27647;DHT22;42229;51.230;6.240;2024-02-21T09:38:57;11.30;99.90
27647;DHT22;42229;51.230;6.240;2024-02-21T09:41:25;11.30;99.90
27647;DHT22;42229;51.230;6.240;2024-02-21T09:43:53;11.30;99.90
27647;DHT22;42229;51.230;6.240;2024-02-21T09:46:21;11.40;99.90
27647;DHT22;42229;51.230;6.240;2024-02-21T09:48:56;11.40;99.90
27647;DHT22;42229;51.230;6.240;2024-02-21T09:51:30;11.50;99.90
27647;DHT22;42229;51.230;6.240;2024-02-21T09:53:58;11.50;99.90
27647;DHT22;42229;51.230;6.240;2024-02-21T09:56:25;11.50;99.90
27647;DHT22;42229;51.230;6.240;2024-02-21T09:58:51;11.50;99.90
27647;DHT22;42229;51.230;6.240;2024-02-21T10:01:17;11.50;99.90
27647;DHT22;42229;51.230;6.240;2024-02-21T10:03:43;11.60;99.90
27647;DHT22;42229;51.230;6.240;2024-02-21T10:06:10;11.60;99.90
27647;DHT22;42229;51.230;6.240;2024-02-21T10:08:36;11.70;99.90
27647;DHT22;42229;51.230;6.240;2024-02-21T10:11:02;11.70;99.90
27647;DHT22;42229;51.230;6.240;2024-02-21T10:13:29;11.80;99.90
27647;DHT22;42229;51.230;6.240;2024-02-21T10:16:08;11.80;99.90
27647;DHT22;42229;51.230;6.240;2024-02-21T10:18:34;11.90;99.90
27647;DHT22;42229;51.230;6.240;2024-02-21T10:21:04;11.90;99.90
27647;DHT22;42229;51.230;6.240;2024-02-21T10:23:42;12.00;99.90
27647;DHT22;42229;51.230;6.240;2024-02-21T10:26:09;12.00;99.90
27647;DHT22;42229;51.230;6.240;2024-02-21T10:28:35;12.10;99.90
27647;DHT22;42229;51.230;6.240;2024-02-21T10:31:04;12.10;99.90
27647;DHT22;42229;51.230;6.240;2024-02-21T10:33:30;12.20;99.90
27647;DHT22;42229;51.230;6.240;2024-02-21T10:36:05;12.20;99.90
27647;DHT22;42229;51.230;6.240;2024-02-21T10:38:33;12.30;99.90
27647;DHT22;42229;51.230;6.240;2024-02-21T10:41:00;12.30;99.90
27647;DHT22;42229;51.230;6.240;2024-02-21T10:43:30;12.40;99.90
27647;DHT22;42229;51.230;6.240;2024-02-21T10:46:00;12.40;99.90
27647;DHT22;42229;51.230;6.240;2024-02-21T10:48:31;12.50;99.90
27647;DHT22;42229;51.230;6.240;2024-02-21T10:51:09;12.50;99.90
27647;DHT22;42229;51.230;6.240;2024-02-21T10:56:28;12.60;99.90
27647;DHT22;42229;51.230;6.240;2024-02-21T10:58:57;12.60;99.90
27647;DHT22;42229;51.230;6.240;2024-02-21T11:01:24;12.70;99.90
27647;DHT22;42229;51.230;6.240;2024-02-21T11:03:53;12.70;99.90
27647;DHT22;42229;51.230;6.240;2024-02-21T11:06:20;12.80;99.90
27647;DHT22;42229;51.230;6.240;2024-02-21T11:08:47;12.80;99.90
27647;DHT22;42229;51.230;6.240;2024-02-21T11:11:15;12.80;99.90
27647;DHT22;42229;51.230;6.240;2024-02-21T11:13:46;12.80;99.90
27647;DHT22;42229;51.230;6.240;2024-02-21T11:16:21;12.80;99.90
27647;DHT22;42229;51.230;6.240;2024-02-21T11:18:48;12.90;99.90
27647;DHT22;42229;51.230;6.240;2024-02-21T11:21:15;12.90;99.90
27647;DHT22;42229;51.230;6.240;2024-02-21T11:23:41;13.00;99.90
27647;DHT22;42229;51.230;6.240;2024-02-21T11:26:08;13.00;99.90
27647;DHT22;42229;51.230;6.240;2024-02-21T11:28:35;13.00;99.90
27647;DHT22;42229;51.230;6.240;2024-02-21T11:31:06;13.10;99.90
27647;DHT22;42229;51.230;6.240;2024-02-21T11:33:39;13.20;99.90
27647;DHT22;42229;51.230;6.240;2024-02-21T11:36:06;13.20;99.90
27647;DHT22;42229;51.230;6.240;2024-02-21T11:38:33;13.30;99.90
27647;DHT22;42229;51.230;6.240;2024-02-21T11:40:59;13.30;99.90
27647;DHT22;42229;51.230;6.240;2024-02-21T11:43:26;13.40;99.90
27647;DHT22;42229;51.230;6.240;2024-02-21T11:46:01;13.40;99.90
27647;DHT22;42229;51.230;6.240;2024-02-21T11:48:30;13.50;99.90
27647;DHT22;42229;51.230;6.240;2024-02-21T11:50:59;13.60;99.90
27647;DHT22;42229;51.230;6.240;2024-02-21T11:53:26;13.60;99.90
27647;DHT22;42229;51.230;6.240;2024-02-21T11:55:56;13.70;99.90
27647;DHT22;42229;51.230;6.240;2024-02-21T11:58:22;13.80;99.90
27647;DHT22;42229;51.230;6.240;2024-02-21T12:00:49;13.90;99.90
27647;DHT22;42229;51.230;6.240;2024-02-21T12:03:15;13.90;99.90
27647;DHT22;42229;51.230;6.240;2024-02-21T12:05:41;13.90;99.90
27647;DHT22;42229;51.230;6.240;2024-02-21T12:08:08;14.00;99.90
27647;DHT22;42229;51.230;6.240;2024-02-21T12:10:35;14.00;99.90
27647;DHT22;42229;51.230;6.240;2024-02-21T12:13:08;14.10;99.90
27647;DHT22;42229;51.230;6.240;2024-02-21T12:15:34;14.10;99.90
27647;DHT22;42229;51.230;6.240;2024-02-21T12:18:00;14.20;99.90
27647;DHT22;42229;51.230;6.240;2024-02-21T12:20:27;14.20;99.90
27647;DHT22;42229;51.230;6.240;2024-02-21T12:22:53;14.30;99.90
27647;DHT22;42229;51.230;6.240;2024-02-21T12:25:21;14.40;99.90
27647;DHT22;42229;51.230;6.240;2024-02-21T12:27:52;14.50;99.90
27647;DHT22;42229;51.230;6.240;2024-02-21T12:30:20;14.60;99.90
27647;DHT22;42229;51.230;6.240;2024-02-21T12:32:46;14.70;99.90
27647;DHT22;42229;51.230;6.240;2024-02-21T12:35:14;14.90;99.90
27647;DHT22;42229;51.230;6.240;2024-02-21T12:37:40;15.00;99.90
27647;DHT22;42229;51.230;6.240;2024-02-21T12:40:08;15.10;99.90
27647;DHT22;42229;51.230;6.240;2024-02-21T12:42:34;15.20;99.90
27647;DHT22;42229;51.230;6.240;2024-02-21T12:45:01;15.30;99.90
27647;DHT22;42229;51.230;6.240;2024-02-21T12:47:29;15.40;99.90
27647;DHT22;42229;51.230;6.240;2024-02-21T12:49:55;15.50;99.90
27647;DHT22;42229;51.230;6.240;2024-02-21T12:52:21;15.50;99.90
27647;DHT22;42229;51.230;6.240;2024-02-21T12:54:48;15.60;99.90
27647;DHT22;42229;51.230;6.240;2024-02-21T12:57:14;15.60;99.90
27647;DHT22;42229;51.230;6.240;2024-02-21T12:59:40;15.60;99.90
27647;DHT22;42229;51.230;6.240;2024-02-21T13:02:07;15.70;99.90
27647;DHT22;42229;51.230;6.240;2024-02-21T13:04:34;15.70;99.90
27647;DHT22;42229;51.230;6.240;2024-02-21T13:07:00;15.70;99.90
27647;DHT22;42229;51.230;6.240;2024-02-21T13:09:27;15.80;99.90
27647;DHT22;42229;51.230;6.240;2024-02-21T13:11:53;15.90;99.90
27647;DHT22;42229;51.230;6.240;2024-02-21T13:14:19;16.00;99.90
27647;DHT22;42229;51.230;6.240;2024-02-21T13:16:45;16.10;99.90
27647;DHT22;42229;51.230;6.240;2024-02-21T13:19:11;16.20;99.90
27647;DHT22;42229;51.230;6.240;2024-02-21T13:21:39;16.20;99.90
27647;DHT22;42229;51.230;6.240;2024-02-21T13:24:05;16.20;99.90
27647;DHT22;42229;51.230;6.240;2024-02-21T13:26:32;16.10;99.90
27647;DHT22;42229;51.230;6.240;2024-02-21T13:28:58;16.10;99.90
27647;DHT22;42229;51.230;6.240;2024-02-21T13:31:24;16.00;99.90
27647;DHT22;42229;51.230;6.240;2024-02-21T13:33:51;15.80;99.90
27647;DHT22;42229;51.230;6.240;2024-02-21T13:36:17;15.70;99.90
27647;DHT22;42229;51.230;6.240;2024-02-21T13:38:44;15.50;99.90
27647;DHT22;42229;51.230;6.240;2024-02-21T13:41:12;15.40;99.90
27647;DHT22;42229;51.230;6.240;2024-02-21T13:43:39;15.30;99.90
27647;DHT22;42229;51.230;6.240;2024-02-21T13:46:05;15.10;99.90
27647;DHT22;42229;51.230;6.240;2024-02-21T13:48:35;15.00;99.90
27647;DHT22;42229;51.230;6.240;2024-02-21T13:51:02;14.90;99.90
27647;DHT22;42229;51.230;6.240;2024-02-21T13:53:28;14.90;99.90
27647;DHT22;42229;51.230;6.240;2024-02-21T13:55:54;14.80;99.90
27647;DHT22;42229;51.230;6.240;2024-02-21T13:58:21;14.70;99.90
27647;DHT22;42229;51.230;6.240;2024-02-21T14:00:47;14.60;99.90
27647;DHT22;42229;51.230;6.240;2024-02-21T14:03:14;14.60;99.90
27647;DHT22;42229;51.230;6.240;2024-02-21T14:05:40;14.50;99.90
27647;DHT22;42229;51.230;6.240;2024-02-21T14:08:06;14.50;99.90
27647;DHT22;42229;51.230;6.240;2024-02-21T14:10:32;14.40;99.90
27647;DHT22;42229;51.230;6.240;2024-02-21T14:12:59;14.40;99.90
27647;DHT22;42229;51.230;6.240;2024-02-21T14:15:26;14.30;99.90
27647;DHT22;42229;51.230;6.240;2024-02-21T14:17:52;14.40;99.90
27647;DHT22;42229;51.230;6.240;2024-02-21T14:20:18;14.30;99.90
27647;DHT22;42229;51.230;6.240;2024-02-21T14:22:45;14.30;99.90
27647;DHT22;42229;51.230;6.240;2024-02-21T14:25:11;14.30;99.90
27647;DHT22;42229;51.230;6.240;2024-02-21T14:27:38;14.30;99.90
27647;DHT22;42229;51.230;6.240;2024-02-21T14:30:04;14.20;99.90
27647;DHT22;42229;51.230;6.240;2024-02-21T14:32:31;14.20;99.90
27647;DHT22;42229;51.230;6.240;2024-02-21T14:34:57;14.20;99.90
27647;DHT22;42229;51.230;6.240;2024-02-21T14:37:24;14.20;99.90
27647;DHT22;42229;51.230;6.240;2024-02-21T14:39:50;14.20;99.90
27647;DHT22;42229;51.230;6.240;2024-02-21T14:42:16;14.20;99.90
27647;DHT22;42229;51.230;6.240;2024-02-21T14:44:43;14.20;99.90
27647;DHT22;42229;51.230;6.240;2024-02-21T14:47:09;14.20;99.90
27647;DHT22;42229;51.230;6.240;2024-02-21T14:49:35;14.20;99.90
27647;DHT22;42229;51.230;6.240;2024-02-21T14:52:02;14.10;99.90
27647;DHT22;42229;51.230;6.240;2024-02-21T14:54:28;14.10;99.90
27647;DHT22;42229;51.230;6.240;2024-02-21T14:56:54;14.00;99.90
27647;DHT22;42229;51.230;6.240;2024-02-21T14:59:21;14.00;99.90
27647;DHT22;42229;51.230;6.240;2024-02-21T15:01:47;14.00;99.90
27647;DHT22;42229;51.230;6.240;2024-02-21T15:04:13;13.90;99.90
27647;DHT22;42229;51.230;6.240;2024-02-21T15:06:39;13.90;99.90
27647;DHT22;42229;51.230;6.240;2024-02-21T15:09:06;13.90;99.90
27647;DHT22;42229;51.230;6.240;2024-02-21T15:11:33;13.80;99.90
27647;DHT22;42229;51.230;6.240;2024-02-21T15:13:59;13.80;99.90
27647;DHT22;42229;51.230;6.240;2024-02-21T15:16:25;13.80;99.90
27647;DHT22;42229;51.230;6.240;2024-02-21T15:18:52;13.80;99.90
27647;DHT22;42229;51.230;6.240;2024-02-21T15:21:18;13.80;99.90
27647;DHT22;42229;51.230;6.240;2024-02-21T15:23:44;13.80;99.90
27647;DHT22;42229;51.230;6.240;2024-02-21T15:26:11;13.80;99.90
27647;DHT22;42229;51.230;6.240;2024-02-21T15:28:37;13.70;99.90
27647;DHT22;42229;51.230;6.240;2024-02-21T15:31:03;13.80;99.90
27647;DHT22;42229;51.230;6.240;2024-02-21T15:33:29;13.70;99.90
27647;DHT22;42229;51.230;6.240;2024-02-21T15:35:56;13.80;99.90
27647;DHT22;42229;51.230;6.240;2024-02-21T15:38:22;13.70;99.90